AVA9313 SKRG-SKBO
Flight info
| Callsign | AVA9313 |
|---|---|
| Flight time | 0h 33m |
| Altitude | 19000 |
| Route | ISVAT2B ISVAT ISVAT4E |
| Aircraft | A320/M-SDE3FGHIRWY/LB1 |
Departure
| Time | 2026-04-25 02:43 |
|---|---|
| Airport | Jose Maria Córdova International Airport (SKRG) |
Arrival
| Time | 2026-04-25 03:17 |
|---|---|
| Airport | El Dorado International Airport (SKBO) |
| Time | Latitude | Longitude | Altitude | Speed | Heading |
|---|---|---|---|---|---|
| 2026-04-25 02:21 | 6.17033 | -75.42716 | 7019 ft | 0 kts | 308° |
| 2026-04-25 02:27 | 6.17032 | -75.42716 | 7018 ft | 1 kts | 308° |
| 2026-04-25 02:27 | 6.17024 | -75.42705 | 7022 ft | 3 kts | 317° |
| 2026-04-25 02:28 | 6.17008 | -75.42694 | 7018 ft | 3 kts | 343° |
| 2026-04-25 02:28 | 6.16989 | -75.42692 | 7019 ft | 3 kts | 16° |
| 2026-04-25 02:28 | 6.16972 | -75.42700 | 7018 ft | 3 kts | 40° |
| 2026-04-25 02:28 | 6.16962 | -75.42708 | 7018 ft | 0 kts | 47° |
| 2026-04-25 02:29 | 6.16972 | -75.42699 | 7019 ft | 3 kts | 42° |
| 2026-04-25 02:29 | 6.16988 | -75.42687 | 7019 ft | 3 kts | 36° |
| 2026-04-25 02:29 | 6.17003 | -75.42676 | 7021 ft | 2 kts | 36° |
| 2026-04-25 02:29 | 6.17007 | -75.42673 | 7020 ft | 0 kts | 36° |
| 2026-04-25 02:31 | 6.17015 | -75.42667 | 7018 ft | 6 kts | 36° |
| 2026-04-25 02:32 | 6.17040 | -75.42607 | 7017 ft | 12 kts | 103° |
| 2026-04-25 02:32 | 6.16974 | -75.42552 | 7015 ft | 14 kts | 150° |
| 2026-04-25 02:32 | 6.16881 | -75.42498 | 6999 ft | 13 kts | 149° |
| 2026-04-25 02:32 | 6.16788 | -75.42484 | 7001 ft | 14 kts | 180° |
| 2026-04-25 02:33 | 6.16691 | -75.42483 | 6997 ft | 14 kts | 180° |
| 2026-04-25 02:33 | 6.16587 | -75.42482 | 6990 ft | 16 kts | 179° |
| 2026-04-25 02:33 | 6.16469 | -75.42480 | 6987 ft | 18 kts | 179° |
| 2026-04-25 02:33 | 6.16331 | -75.42479 | 6981 ft | 21 kts | 179° |
| 2026-04-25 02:34 | 6.16181 | -75.42478 | 6978 ft | 22 kts | 179° |
| 2026-04-25 02:34 | 6.16031 | -75.42477 | 6976 ft | 21 kts | 180° |
| 2026-04-25 02:34 | 6.15886 | -75.42476 | 6975 ft | 20 kts | 179° |
| 2026-04-25 02:34 | 6.15750 | -75.42475 | 6975 ft | 19 kts | 180° |
| 2026-04-25 02:35 | 6.15622 | -75.42474 | 6975 ft | 18 kts | 179° |
| 2026-04-25 02:35 | 6.15504 | -75.42473 | 6976 ft | 16 kts | 180° |
| 2026-04-25 02:35 | 6.15388 | -75.42472 | 6977 ft | 18 kts | 180° |
| 2026-04-25 02:35 | 6.15254 | -75.42472 | 6977 ft | 21 kts | 180° |
| 2026-04-25 02:36 | 6.15107 | -75.42472 | 6978 ft | 21 kts | 179° |
| 2026-04-25 02:36 | 6.14970 | -75.42472 | 6978 ft | 19 kts | 180° |
| 2026-04-25 02:36 | 6.14872 | -75.42485 | 6974 ft | 14 kts | 186° |
| 2026-04-25 02:36 | 6.14817 | -75.42424 | 6972 ft | 14 kts | 88° |
| 2026-04-25 02:37 | 6.14817 | -75.42411 | 6972 ft | 0 kts | 87° |
| 2026-04-25 02:40 | 6.14818 | -75.42402 | 6972 ft | 2 kts | 86° |
| 2026-04-25 02:40 | 6.14827 | -75.42384 | 6971 ft | 3 kts | 50° |
| 2026-04-25 02:40 | 6.14852 | -75.42366 | 6974 ft | 6 kts | 31° |
| 2026-04-25 02:41 | 6.14887 | -75.42346 | 6975 ft | 6 kts | 30° |
| 2026-04-25 02:41 | 6.14922 | -75.42326 | 6976 ft | 6 kts | 30° |
| 2026-04-25 02:41 | 6.14966 | -75.42303 | 6977 ft | 9 kts | 20° |
| 2026-04-25 02:41 | 6.15008 | -75.42299 | 6978 ft | 0 kts | 358° |
| 2026-04-25 02:42 | 6.15140 | -75.42300 | 6976 ft | 56 kts | 0° |
| 2026-04-25 02:42 | 6.15808 | -75.42305 | 6979 ft | 133 kts | 359° |
| 2026-04-25 02:43 | 6.16940 | -75.42312 | 7076 ft | 185 kts | 360° |
| 2026-04-25 02:43 | 6.18239 | -75.42314 | 8029 ft | 186 kts | 359° |
| 2026-04-25 02:43 | 6.19514 | -75.42320 | 8721 ft | 183 kts | 359° |
| 2026-04-25 02:43 | 6.20850 | -75.42299 | 8895 ft | 203 kts | 7° |
| 2026-04-25 02:44 | 6.22132 | -75.41641 | 9192 ft | 217 kts | 49° |
| 2026-04-25 02:44 | 6.22725 | -75.40262 | 9641 ft | 221 kts | 88° |
| 2026-04-25 02:44 | 6.22308 | -75.38794 | 10143 ft | 223 kts | 124° |
| 2026-04-25 02:44 | 6.21410 | -75.37512 | 10612 ft | 225 kts | 127° |
| 2026-04-25 02:45 | 6.20488 | -75.36252 | 11066 ft | 227 kts | 127° |
| 2026-04-25 02:45 | 6.19540 | -75.34968 | 11521 ft | 229 kts | 127° |
| 2026-04-25 02:45 | 6.18588 | -75.33673 | 11979 ft | 231 kts | 127° |
| 2026-04-25 02:45 | 6.17633 | -75.32368 | 12448 ft | 233 kts | 128° |
| 2026-04-25 02:46 | 6.16504 | -75.31151 | 12661 ft | 246 kts | 142° |
| 2026-04-25 02:46 | 6.14997 | -75.30232 | 12807 ft | 262 kts | 159° |
| 2026-04-25 02:46 | 6.13238 | -75.29569 | 12991 ft | 280 kts | 161° |
| 2026-04-25 02:46 | 6.11386 | -75.28859 | 13447 ft | 288 kts | 160° |
| 2026-04-25 02:47 | 6.09495 | -75.28121 | 13919 ft | 298 kts | 160° |
| 2026-04-25 02:47 | 6.07485 | -75.27336 | 14067 ft | 321 kts | 160° |
| 2026-04-25 02:47 | 6.05329 | -75.26493 | 14177 ft | 344 kts | 160° |
| 2026-04-25 02:47 | 6.03052 | -75.25600 | 14442 ft | 357 kts | 160° |
| 2026-04-25 02:48 | 6.00722 | -75.24687 | 14930 ft | 362 kts | 160° |
| 2026-04-25 02:48 | 5.98361 | -75.23780 | 15462 ft | 365 kts | 163° |
| 2026-04-25 02:48 | 5.95893 | -75.23378 | 15962 ft | 365 kts | 183° |
| 2026-04-25 02:48 | 5.93412 | -75.23880 | 16474 ft | 366 kts | 204° |
| 2026-04-25 02:49 | 5.91268 | -75.25234 | 17009 ft | 366 kts | 224° |
| 2026-04-25 02:49 | 5.89567 | -75.27146 | 17530 ft | 369 kts | 231° |
| 2026-04-25 02:49 | 5.87937 | -75.29154 | 18070 ft | 373 kts | 232° |
| 2026-04-25 02:49 | 5.86299 | -75.31188 | 18552 ft | 376 kts | 232° |
| 2026-04-25 02:50 | 5.84646 | -75.33242 | 18742 ft | 379 kts | 232° |
| 2026-04-25 02:50 | 5.82987 | -75.35303 | 18780 ft | 378 kts | 232° |
| 2026-04-25 02:50 | 5.81332 | -75.37359 | 18770 ft | 378 kts | 232° |
| 2026-04-25 02:50 | 5.79680 | -75.39416 | 18765 ft | 378 kts | 232° |
| 2026-04-25 02:51 | 5.78029 | -75.41473 | 18767 ft | 378 kts | 232° |
| 2026-04-25 02:51 | 5.76378 | -75.43529 | 18769 ft | 378 kts | 232° |
| 2026-04-25 02:51 | 5.74728 | -75.45582 | 18770 ft | 377 kts | 233° |
| 2026-04-25 02:51 | 5.73424 | -75.47843 | 18766 ft | 374 kts | 251° |
| 2026-04-25 02:52 | 5.72984 | -75.50404 | 18787 ft | 373 kts | 272° |
| 2026-04-25 02:52 | 5.73456 | -75.52913 | 18855 ft | 373 kts | 292° |
| 2026-04-25 02:52 | 5.74792 | -75.55127 | 18962 ft | 373 kts | 312° |
| 2026-04-25 02:52 | 5.76827 | -75.56742 | 19069 ft | 376 kts | 332° |
| 2026-04-25 02:53 | 5.79303 | -75.57569 | 19098 ft | 378 kts | 349° |
| 2026-04-25 02:53 | 5.81907 | -75.57925 | 19099 ft | 379 kts | 352° |
| 2026-04-25 02:53 | 5.84524 | -75.58239 | 19101 ft | 379 kts | 352° |
| 2026-04-25 02:53 | 5.87142 | -75.58547 | 19122 ft | 379 kts | 353° |
| 2026-04-25 02:54 | 5.89771 | -75.58490 | 19144 ft | 381 kts | 11° |
| 2026-04-25 02:54 | 5.92242 | -75.57542 | 19175 ft | 383 kts | 31° |
| 2026-04-25 02:54 | 5.94255 | -75.55795 | 19199 ft | 386 kts | 51° |
| 2026-04-25 02:54 | 5.95567 | -75.53450 | 19219 ft | 388 kts | 71° |
| 2026-04-25 02:55 | 5.96123 | -75.50793 | 19236 ft | 389 kts | 81° |
| 2026-04-25 02:55 | 5.96335 | -75.48142 | 19244 ft | 379 kts | 92° |
| 2026-04-25 02:55 | 5.95865 | -75.45585 | 19247 ft | 370 kts | 109° |
| 2026-04-25 02:55 | 5.94699 | -75.43308 | 19241 ft | 368 kts | 127° |
| 2026-04-25 02:56 | 5.93096 | -75.41310 | 19225 ft | 367 kts | 130° |
| 2026-04-25 02:56 | 5.91471 | -75.39330 | 19209 ft | 366 kts | 130° |
| 2026-04-25 02:56 | 5.89852 | -75.37355 | 19189 ft | 366 kts | 130° |
| 2026-04-25 02:56 | 5.88237 | -75.35385 | 19182 ft | 366 kts | 130° |
| 2026-04-25 02:57 | 5.86613 | -75.33405 | 19160 ft | 366 kts | 129° |
| 2026-04-25 02:57 | 5.84992 | -75.31429 | 19145 ft | 366 kts | 130° |
| 2026-04-25 02:57 | 5.83370 | -75.29455 | 19126 ft | 366 kts | 129° |
| 2026-04-25 02:57 | 5.81752 | -75.27479 | 19123 ft | 366 kts | 129° |
| 2026-04-25 02:58 | 5.80135 | -75.25502 | 19120 ft | 366 kts | 129° |
| 2026-04-25 02:58 | 5.78518 | -75.23525 | 19120 ft | 366 kts | 129° |
| 2026-04-25 02:58 | 5.76899 | -75.21550 | 19118 ft | 366 kts | 129° |
| 2026-04-25 02:58 | 5.75280 | -75.19581 | 19116 ft | 366 kts | 130° |
| 2026-04-25 02:59 | 5.73659 | -75.17609 | 19131 ft | 366 kts | 129° |
| 2026-04-25 02:59 | 5.72040 | -75.15636 | 19128 ft | 366 kts | 129° |
| 2026-04-25 02:59 | 5.70350 | -75.13729 | 19131 ft | 366 kts | 137° |
| 2026-04-25 02:59 | 5.68334 | -75.12186 | 19127 ft | 365 kts | 150° |
| 2026-04-25 03:00 | 5.66050 | -75.11082 | 19127 ft | 363 kts | 159° |
| 2026-04-25 03:00 | 5.63710 | -75.10126 | 19127 ft | 366 kts | 159° |
| 2026-04-25 03:00 | 5.61323 | -75.09148 | 19129 ft | 372 kts | 158° |
| 2026-04-25 03:00 | 5.58923 | -75.08161 | 19143 ft | 373 kts | 158° |
| 2026-04-25 03:01 | 5.56550 | -75.07184 | 19151 ft | 374 kts | 158° |
| 2026-04-25 03:01 | 5.54145 | -75.06192 | 19123 ft | 374 kts | 158° |
| 2026-04-25 03:01 | 5.51738 | -75.05198 | 19118 ft | 373 kts | 158° |
| 2026-04-25 03:01 | 5.49337 | -75.04206 | 19126 ft | 373 kts | 158° |
| 2026-04-25 03:02 | 5.46932 | -75.03213 | 19129 ft | 374 kts | 158° |
| 2026-04-25 03:02 | 5.44528 | -75.02222 | 19125 ft | 373 kts | 158° |
| 2026-04-25 03:02 | 5.42123 | -75.01231 | 19136 ft | 374 kts | 158° |
| 2026-04-25 03:02 | 5.39717 | -75.00239 | 19135 ft | 374 kts | 158° |
| 2026-04-25 03:03 | 5.37300 | -74.99243 | 19020 ft | 374 kts | 158° |
| 2026-04-25 03:03 | 5.34899 | -74.98238 | 19000 ft | 374 kts | 158° |
| 2026-04-25 03:03 | 5.32501 | -74.97221 | 18980 ft | 374 kts | 158° |
| 2026-04-25 03:03 | 5.30104 | -74.96200 | 18960 ft | 374 kts | 158° |
| 2026-04-25 03:04 | 5.27707 | -74.95178 | 18944 ft | 374 kts | 158° |
| 2026-04-25 03:04 | 5.25310 | -74.94159 | 18942 ft | 374 kts | 158° |
| 2026-04-25 03:04 | 5.22935 | -74.93105 | 18937 ft | 374 kts | 152° |
| 2026-04-25 03:05 | 5.19074 | -74.89623 | 17960 ft | 380 kts | 122° |
| 2026-04-25 03:05 | 5.17795 | -74.87379 | 17695 ft | 372 kts | 120° |
| 2026-04-25 03:05 | 5.16502 | -74.85116 | 17434 ft | 365 kts | 120° |
| 2026-04-25 03:05 | 5.15257 | -74.82964 | 17184 ft | 358 kts | 120° |
| 2026-04-25 03:06 | 5.14016 | -74.80828 | 16939 ft | 351 kts | 120° |
| 2026-04-25 03:06 | 5.12795 | -74.78732 | 16743 ft | 345 kts | 120° |
| 2026-04-25 03:06 | 5.11595 | -74.76672 | 16516 ft | 340 kts | 120° |
| 2026-04-25 03:06 | 5.10405 | -74.74625 | 16283 ft | 338 kts | 120° |
| 2026-04-25 03:07 | 5.09225 | -74.72592 | 16059 ft | 336 kts | 120° |
| 2026-04-25 03:07 | 5.08051 | -74.70564 | 15837 ft | 336 kts | 120° |
| 2026-04-25 03:07 | 5.06883 | -74.68540 | 15616 ft | 333 kts | 120° |
| 2026-04-25 03:07 | 5.05724 | -74.66530 | 15393 ft | 332 kts | 120° |
| 2026-04-25 03:08 | 5.04569 | -74.64529 | 15176 ft | 329 kts | 120° |
| 2026-04-25 03:08 | 5.03421 | -74.62547 | 14970 ft | 329 kts | 121° |
| 2026-04-25 03:08 | 5.02275 | -74.60568 | 14759 ft | 327 kts | 121° |
| 2026-04-25 03:08 | 5.01132 | -74.58593 | 14550 ft | 328 kts | 121° |
| 2026-04-25 03:09 | 4.99995 | -74.56655 | 14333 ft | 326 kts | 122° |
| 2026-04-25 03:09 | 4.98767 | -74.54759 | 14111 ft | 324 kts | 125° |
| 2026-04-25 03:09 | 4.97486 | -74.52911 | 13867 ft | 321 kts | 126° |
| 2026-04-25 03:09 | 4.96189 | -74.51093 | 13620 ft | 320 kts | 126° |
| 2026-04-25 03:10 | 4.94892 | -74.49285 | 13416 ft | 318 kts | 126° |
| 2026-04-25 03:10 | 4.93606 | -74.47477 | 13167 ft | 318 kts | 126° |
| 2026-04-25 03:10 | 4.92348 | -74.45689 | 13019 ft | 308 kts | 125° |
| 2026-04-25 03:10 | 4.91148 | -74.43971 | 12885 ft | 296 kts | 125° |
| 2026-04-25 03:11 | 4.89998 | -74.42309 | 12844 ft | 280 kts | 123° |
| 2026-04-25 03:11 | 4.88996 | -74.40705 | 12863 ft | 265 kts | 124° |
| 2026-04-25 03:11 | 4.88309 | -74.39715 | 12871 ft | 256 kts | 126° |
| 2026-04-25 03:11 | 4.87254 | -74.38312 | 12882 ft | 249 kts | 128° |
| 2026-04-25 03:12 | 4.86204 | -74.36937 | 12894 ft | 248 kts | 128° |
| 2026-04-25 03:12 | 4.84815 | -74.35104 | 12629 ft | 249 kts | 127° |
| 2026-04-25 03:12 | 4.84107 | -74.34169 | 12437 ft | 250 kts | 127° |
| 2026-04-25 03:12 | 4.82720 | -74.32335 | 12029 ft | 248 kts | 127° |
| 2026-04-25 03:13 | 4.82012 | -74.31400 | 11815 ft | 250 kts | 126° |
| 2026-04-25 03:13 | 4.80959 | -74.30008 | 11507 ft | 251 kts | 126° |
| 2026-04-25 03:13 | 4.79910 | -74.28623 | 11190 ft | 244 kts | 126° |
| 2026-04-25 03:13 | 4.78898 | -74.27286 | 10911 ft | 239 kts | 126° |
| 2026-04-25 03:14 | 4.77911 | -74.25982 | 10622 ft | 236 kts | 126° |
| 2026-04-25 03:14 | 4.76925 | -74.24679 | 10352 ft | 232 kts | 126° |
| 2026-04-25 03:14 | 4.75979 | -74.23429 | 10081 ft | 217 kts | 127° |
| 2026-04-25 03:14 | 4.75104 | -74.22274 | 9820 ft | 198 kts | 127° |
| 2026-04-25 03:15 | 4.74311 | -74.21226 | 9532 ft | 181 kts | 127° |
| 2026-04-25 03:15 | 4.73571 | -74.20249 | 9257 ft | 173 kts | 127° |
| 2026-04-25 03:15 | 4.72847 | -74.19306 | 9006 ft | 169 kts | 127° |
| 2026-04-25 03:15 | 4.72139 | -74.18374 | 8777 ft | 167 kts | 127° |
| 2026-04-25 03:16 | 4.71447 | -74.17448 | 8543 ft | 165 kts | 128° |
| 2026-04-25 03:16 | 4.70761 | -74.16536 | 8371 ft | 157 kts | 128° |
| 2026-04-25 03:16 | 4.70180 | -74.15770 | 8363 ft | 115 kts | 127° |
| 2026-04-25 03:16 | 4.69801 | -74.15268 | 8365 ft | 65 kts | 127° |
| 2026-04-25 03:17 | 4.69719 | -74.15053 | 8364 ft | 18 kts | 99° |
| 2026-04-25 03:17 | 4.69705 | -74.14967 | 8364 ft | 0 kts | 97° |
| 2026-04-25 03:17 | 4.69705 | -74.14959 | 8364 ft | 4 kts | 94° |
| 2026-04-25 03:17 | 4.69729 | -74.14929 | 8365 ft | 8 kts | 34° |
| 2026-04-25 03:18 | 4.69791 | -74.14881 | 8366 ft | 14 kts | 38° |
| 2026-04-25 03:18 | 4.69881 | -74.14812 | 8366 ft | 12 kts | 38° |
| 2026-04-25 03:18 | 4.69878 | -74.14753 | 8366 ft | 9 kts | 123° |
| 2026-04-25 03:18 | 4.69848 | -74.14706 | 8366 ft | 7 kts | 123° |
| 2026-04-25 03:19 | 4.69820 | -74.14671 | 8366 ft | 5 kts | 129° |
| 2026-04-25 03:19 | 4.69803 | -74.14649 | 8366 ft | 3 kts | 128° |
| 2026-04-25 03:19 | 4.69801 | -74.14629 | 8366 ft | 5 kts | 79° |
| 2026-04-25 03:19 | 4.69809 | -74.14606 | 8366 ft | 2 kts | 68° |
| 2026-04-25 03:20 | 4.69814 | -74.14595 | 8366 ft | 3 kts | 66° |
| 2026-04-25 03:20 | 4.69818 | -74.14586 | 8366 ft | 0 kts | 66° |
| 2026-04-25 03:20 | 4.69820 | -74.14583 | 8366 ft | 1 kts | 66° |
| 2026-04-25 03:20 | 4.69820 | -74.14581 | 8366 ft | 0 kts | 66° |